Time;durP1;ratioP1;P1;durP2;ratioP2;P2;SDS_P1;SDS_P2;PMS_P1;PMS_P2;Temp;Humidity;BMP_temperature;BMP_pressure;BME280_temperature;BME280_humidity;BME280_pressure;Samples;Min_cycle;Max_cycle;Signal;HPM_P1;HPM_P2
2021/07/17 00:02:10;;;;;;;28.60;18.95;;;;;;;17.87;72.82;99546.06;3560987;40;20394;-70
2021/07/17 00:04:38;;;;;;;26.60;19.73;;;;;;;17.87;72.75;99546.06;3570450;40;20085;-70
2021/07/17 00:07:06;;;;;;;27.80;20.52;;;;;;;17.87;72.65;99545.25;3570221;40;20033;-70
2021/07/17 00:09:34;;;;;;;28.52;20.88;;;;;;;17.85;72.72;99544.69;3570026;40;20057;-70
2021/07/17 00:12:01;;;;;;;37.28;20.17;;;;;;;17.87;72.81;99538.03;3570248;40;20314;-70
2021/07/17 00:14:30;;;;;;;33.03;20.98;;;;;;;17.82;72.51;99538.72;3570388;40;20056;-70
2021/07/17 00:16:57;;;;;;;31.73;21.35;;;;;;;17.75;72.94;99537.13;3560981;40;20323;-71
2021/07/17 00:19:27;;;;;;;28.15;19.98;;;;;;;17.72;73.22;99535.72;3569739;40;20049;-69
2021/07/17 00:21:54;;;;;;;27.40;20.85;;;;;;;17.74;73.30;99540.84;3569802;40;20081;-69
2021/07/17 00:24:22;;;;;;;32.45;20.92;;;;;;;17.72;73.18;99537.56;3570112;40;20045;-69
2021/07/17 00:26:50;;;;;;;32.38;21.17;;;;;;;17.71;73.15;99542.06;3605688;23;20083;-70
2021/07/17 00:29:18;;;;;;;33.85;21.30;;;;;;;17.74;73.32;99552.38;3572242;40;20056;-70
2021/07/17 00:31:46;;;;;;;25.33;21.05;;;;;;;17.70;72.95;99547.66;3580973;40;20106;-70
2021/07/17 00:34:13;;;;;;;31.33;21.40;;;;;;;17.57;73.28;99554.75;3572396;40;20069;-70
2021/07/17 00:36:43;;;;;;;31.75;21.55;;;;;;;17.59;73.78;99549.19;3580729;40;20056;-71
2021/07/17 00:39:10;;;;;;;32.40;20.48;;;;;;;17.56;73.75;99545.13;3580790;40;20077;-71
2021/07/17 00:41:38;;;;;;;30.38;19.75;;;;;;;17.65;73.95;99548.31;3581369;40;20056;-69
2021/07/17 00:44:07;;;;;;;26.23;19.15;;;;;;;17.70;73.56;99545.81;3581691;40;20064;-69
2021/07/17 00:46:36;;;;;;;31.27;20.73;;;;;;;17.73;73.12;99544.56;3585314;40;20037;-70
2021/07/17 00:49:04;;;;;;;31.23;21.42;;;;;;;17.70;73.41;99553.81;3583653;40;20052;-70
2021/07/17 00:51:32;;;;;;;29.75;21.67;;;;;;;17.65;73.12;99536.81;3581122;40;20354;-70
2021/07/17 00:54:03;;;;;;;29.88;21.38;;;;;;;17.58;73.21;99539.53;3581464;40;20045;-70
2021/07/17 00:56:31;;;;;;;33.10;22.48;;;;;;;17.54;73.55;99536.50;3572309;40;20353;-69
2021/07/17 00:59:03;;;;;;;35.65;21.58;;;;;;;17.56;74.02;99544.31;3574556;40;20060;-69
2021/07/17 01:01:32;;;;;;;28.88;22.08;;;;;;;17.55;73.77;99539.97;3574990;40;20063;-70
2021/07/17 01:04:00;;;;;;;32.63;20.75;;;;;;;17.52;73.61;99545.78;3573299;40;20033;-70
2021/07/17 01:06:28;;;;;;;26.80;19.70;;;;;;;17.57;73.73;99549.41;3581361;40;20056;-70
2021/07/17 01:08:55;;;;;;;26.95;20.80;;;;;;;17.49;73.58;99548.88;3571828;40;20056;-70
2021/07/17 01:11:24;;;;;;;30.77;21.65;;;;;;;17.48;73.88;99540.06;3571688;40;20052;-70
2021/07/17 01:13:52;;;;;;;29.98;22.70;;;;;;;17.33;74.21;99537.69;3581288;40;20499;-70
2021/07/17 01:16:20;;;;;;;31.77;22.88;;;;;;;17.17;74.23;99540.91;3580870;40;20051;-71
2021/07/17 01:18:48;;;;;;;30.10;22.70;;;;;;;17.15;74.13;99535.00;3580560;40;20048;-70
2021/07/17 01:21:18;;;;;;;29.30;22.70;;;;;;;17.02;74.84;99533.25;3571861;40;20059;-70
2021/07/17 01:23:47;;;;;;;31.00;23.58;;;;;;;17.03;75.09;99536.72;3580766;40;20040;-70
2021/07/17 01:26:16;;;;;;;33.63;24.33;;;;;;;17.15;74.90;99535.00;3580710;40;20059;-70
2021/07/17 01:28:44;;;;;;;35.47;24.65;;;;;;;17.13;74.71;99537.03;3580246;40;20410;-70
2021/07/17 01:31:13;;;;;;;33.72;23.73;;;;;;;17.03;75.11;99534.88;3580605;40;20048;-70
2021/07/17 01:33:40;;;;;;;34.47;26.98;;;;;;;16.99;75.51;99543.53;3581053;40;20082;-70
2021/07/17 01:36:08;;;;;;;33.97;23.60;;;;;;;16.98;75.68;99549.88;3570209;40;20076;-71
2021/07/17 01:38:37;;;;;;;35.20;23.55;;;;;;;17.06;75.60;99544.28;3578528;40;20096;-71
2021/07/17 01:41:05;;;;;;;32.10;24.42;;;;;;;17.06;75.40;99542.44;3578898;40;20132;-70
2021/07/17 01:43:33;;;;;;;32.65;24.30;;;;;;;17.14;75.54;99538.66;3578120;40;20360;-71
2021/07/17 01:46:01;;;;;;;37.72;24.70;;;;;;;17.14;75.36;99537.84;3578966;40;20053;-71
2021/07/17 01:48:29;;;;;;;34.40;23.48;;;;;;;17.24;75.54;99533.66;3568842;40;20053;-71
2021/07/17 01:50:57;;;;;;;30.58;22.60;;;;;;;17.33;75.06;99532.34;3578631;40;20402;-71
2021/07/17 01:53:25;;;;;;;30.77;21.55;;;;;;;17.38;74.65;99530.88;3578619;40;20356;-70
2021/07/17 01:55:54;;;;;;;29.60;22.42;;;;;;;17.39;74.52;99524.50;3578615;40;20053;-71
2021/07/17 01:58:21;;;;;;;33.28;22.98;;;;;;;17.35;74.50;99521.47;3578238;40;20052;-70
2021/07/17 02:00:49;;;;;;;31.10;22.75;;;;;;;17.39;74.98;99524.50;3578667;40;20130;-70
2021/07/17 02:03:17;;;;;;;29.45;22.25;;;;;;;17.40;74.63;99521.63;3578654;40;20400;-70
2021/07/17 02:05:44;;;;;;;32.67;22.77;;;;;;;17.43;74.63;99518.53;3578717;40;20036;-70
2021/07/17 02:08:14;;;;;;;27.05;23.13;;;;;;;17.42;74.82;99514.19;3578483;40;20093;-70
2021/07/17 02:10:41;;;;;;;36.30;22.42;;;;;;;17.41;74.67;99512.56;3578417;40;20056;-70
2021/07/17 02:13:14;;;;;;;30.35;20.52;;;;;;;17.47;74.49;99513.53;3578442;40;20099;-70
2021/07/17 02:15:44;;;;;;;34.58;22.40;;;;;;;17.54;74.64;99504.41;3578638;40;20056;-70
2021/07/17 02:18:13;;;;;;;33.15;22.15;;;;;;;17.53;74.44;99504.63;3578400;40;20053;-70
2021/07/17 02:20:42;;;;;;;28.13;20.73;;;;;;;17.50;74.62;99500.53;3579096;40;20118;-70
2021/07/17 02:23:10;;;;;;;29.27;20.90;;;;;;;17.53;74.49;99499.28;3578741;40;20055;-70
2021/07/17 02:25:38;;;;;;;27.13;21.25;;;;;;;17.54;74.40;99500.91;3579065;40;20417;-70
2021/07/17 02:28:06;;;;;;;28.88;22.42;;;;;;;17.54;74.05;99496.38;3578969;40;20045;-71
2021/07/17 02:30:36;;;;;;;29.23;21.08;;;;;;;17.52;74.20;99495.81;3579543;40;20114;-71
2021/07/17 02:33:03;;;;;;;37.70;22.25;;;;;;;17.51;73.90;99498.69;3578750;40;20392;-71
2021/07/17 02:35:31;;;;;;;32.65;21.27;;;;;;;17.53;74.48;99499.28;3578438;40;20061;-70
2021/07/17 02:37:59;;;;;;;31.00;21.80;;;;;;;17.58;74.03;99494.09;3578513;40;20379;-70
2021/07/17 02:40:26;;;;;;;25.40;21.38;;;;;;;17.61;73.73;99496.34;3568965;40;20057;-71
2021/07/17 02:42:54;;;;;;;29.85;21.13;;;;;;;17.59;73.87;99498.41;3578207;40;20025;-71
2021/07/17 02:45:22;;;;;;;28.50;21.40;;;;;;;17.64;74.02;99492.41;3578447;40;20118;-71
2021/07/17 02:47:51;;;;;;;29.55;20.77;;;;;;;17.68;74.03;99491.75;3569016;40;20036;-71
2021/07/17 02:50:19;;;;;;;29.58;21.05;;;;;;;17.69;73.58;99487.22;3577983;40;20065;-70
2021/07/17 02:52:47;;;;;;;29.92;22.80;;;;;;;17.69;73.76;99496.03;3578142;40;20149;-71
2021/07/17 02:55:15;;;;;;;32.45;22.15;;;;;;;17.67;73.53;99495.44;3569890;40;20160;-70
2021/07/17 02:57:43;;;;;;;28.42;22.42;;;;;;;17.67;73.79;99489.28;3570321;40;20063;-71
2021/07/17 03:00:13;;;;;;;27.92;20.10;;;;;;;17.68;73.70;99496.28;3579557;40;20060;-70
2021/07/17 03:02:41;;;;;;;30.65;22.00;;;;;;;17.71;73.94;99488.59;3580030;40;20060;-70
2021/07/17 03:05:12;;;;;;;27.20;21.02;;;;;;;17.77;73.79;99493.09;3579767;40;20037;-70
2021/07/17 03:07:40;;;;;;;30.33;21.45;;;;;;;17.79;73.48;99499.03;3579516;40;20055;-71
2021/07/17 03:10:08;;;;;;;29.42;21.38;;;;;;;17.80;73.73;99497.19;3570117;40;20069;-71
2021/07/17 03:12:36;;;;;;;30.58;22.42;;;;;;;17.68;73.60;99497.09;3579826;40;20077;-70
2021/07/17 03:15:04;;;;;;;31.02;21.88;;;;;;;17.65;73.80;99500.19;3579673;40;20392;-70
2021/07/17 03:17:32;;;;;;;29.55;22.05;;;;;;;17.63;74.19;99501.44;3570172;40;20052;-70
2021/07/17 03:20:01;;;;;;;32.97;22.02;;;;;;;17.61;74.30;99500.88;3579466;40;20404;-71
2021/07/17 03:22:30;;;;;;;29.77;20.80;;;;;;;17.58;74.09;99499.44;3570507;40;20130;-70
2021/07/17 03:24:57;;;;;;;27.27;21.02;;;;;;;17.56;74.11;99504.22;3570211;40;20426;-71
2021/07/17 03:27:25;;;;;;;30.40;21.35;;;;;;;17.57;74.33;99508.50;3579843;40;20121;-71
2021/07/17 03:29:53;;;;;;;30.13;22.27;;;;;;;17.56;74.19;99499.69;3573400;40;20045;-70
2021/07/17 03:32:26;;;;;;;27.10;20.42;;;;;;;17.56;74.25;99496.19;3573667;40;20033;-71
2021/07/17 03:34:54;;;;;;;29.65;22.10;;;;;;;17.47;74.55;99498.34;3583377;40;20025;-70
2021/07/17 03:37:22;;;;;;;33.13;21.67;;;;;;;17.50;74.57;99494.38;3581611;40;20076;-71
2021/07/17 03:39:51;;;;;;;34.08;22.33;;;;;;;17.50;74.54;99500.53;3581685;40;20088;-71
2021/07/17 03:42:19;;;;;;;29.80;21.50;;;;;;;17.53;74.48;99493.94;3582048;40;20166;-71
2021/07/17 03:44:47;;;;;;;30.05;22.88;;;;;;;17.54;74.48;99507.09;3571981;40;20055;-71
2021/07/17 03:47:15;;;;;;;30.83;21.95;;;;;;;17.55;74.24;99495.38;3580883;40;20118;-71
2021/07/17 03:49:43;;;;;;;25.95;21.55;;;;;;;17.57;74.21;99498.63;3580625;40;20044;-70
2021/07/17 03:52:10;;;;;;;34.38;23.80;;;;;;;17.52;74.16;99497.66;3571045;40;20132;-70
2021/07/17 03:54:38;;;;;;;33.75;20.35;;;;;;;17.50;74.84;99500.53;3579852;40;20049;-71
2021/07/17 03:57:07;;;;;;;27.77;19.73;;;;;;;17.58;74.23;99508.28;3580295;40;20130;-70
2021/07/17 03:59:36;;;;;;;34.85;23.13;;;;;;;17.50;74.47;99507.75;3572585;40;20118;-71
2021/07/17 04:02:04;;;;;;;30.38;21.92;;;;;;;17.49;74.79;99501.59;3584433;40;20225;-70
2021/07/17 04:04:40;;;;;;;27.52;21.30;;;;;;;17.45;75.13;99495.03;3584729;40;20052;-71
2021/07/17 04:07:08;;;;;;;30.88;21.77;;;;;;;17.52;74.53;99492.31;3584955;40;20029;-70
2021/07/17 04:09:36;;;;;;;25.50;21.13;;;;;;;17.53;74.87;99515.34;3585514;40;20402;-70
2021/07/17 04:12:05;;;;;;;32.08;21.98;;;;;;;17.57;74.76;99503.16;3585639;40;20114;-70
2021/07/17 04:14:34;;;;;;;35.05;22.73;;;;;;;17.60;74.93;99500.06;3585146;40;20406;-70
2021/07/17 04:17:02;;;;;;;37.35;21.88;;;;;;;17.66;74.71;99504.50;3584119;40;20364;-71
2021/07/17 04:19:30;;;;;;;33.30;21.65;;;;;;;17.70;74.35;99504.88;3574041;40;20325;-70
2021/07/17 04:21:57;;;;;;;31.83;21.27;;;;;;;17.65;74.49;99502.88;3583357;40;20064;-71
2021/07/17 04:24:26;;;;;;;26.05;20.13;;;;;;;17.66;74.51;99504.50;3583642;40;20049;-71
2021/07/17 04:26:54;;;;;;;32.55;22.33;;;;;;;17.65;74.70;99502.06;3582996;40;20426;-70
2021/07/17 04:29:21;;;;;;;26.77;20.52;;;;;;;17.60;74.41;99512.59;3580185;40;20044;-70
2021/07/17 04:31:51;;;;;;;30.17;22.25;;;;;;;17.63;74.67;99510.28;3570511;40;20065;-70
2021/07/17 04:34:18;;;;;;;28.55;20.58;;;;;;;17.55;74.71;99508.75;3579399;40;20061;-70
2021/07/17 04:36:46;;;;;;;27.67;20.98;;;;;;;17.61;74.44;99511.56;3579193;40;20399;-70
2021/07/17 04:39:14;;;;;;;26.77;20.85;;;;;;;17.64;74.49;99521.81;3578789;40;20044;-69
2021/07/17 04:41:41;;;;;;;29.15;23.88;;;;;;;17.68;74.43;99515.81;3579354;40;20081;-70
2021/07/17 04:44:09;;;;;;;29.83;20.35;;;;;;;17.70;74.25;99523.59;3579287;40;20033;-70
2021/07/17 04:46:37;;;;;;;29.30;22.55;;;;;;;17.57;74.37;99528.03;3579077;40;20044;-70
2021/07/17 04:49:06;;;;;;;28.33;22.23;;;;;;;17.57;74.78;99516.53;3570384;40;20058;-70
2021/07/17 04:51:34;;;;;;;29.13;20.92;;;;;;;17.54;74.65;99525.78;3579331;40;20077;-70
2021/07/17 04:54:01;;;;;;;25.75;20.67;;;;;;;17.59;74.94;99517.09;3580940;40;20045;-70
2021/07/17 04:56:29;;;;;;;27.73;21.00;;;;;;;17.57;74.77;99521.88;3583222;40;20031;-70
2021/07/17 04:58:57;;;;;;;32.97;21.70;;;;;;;17.60;74.56;99523.31;3583058;40;20041;-70
2021/07/17 05:01:24;;;;;;;34.35;22.13;;;;;;;17.45;74.94;99526.31;3583856;40;20130;-70
2021/07/17 05:03:52;;;;;;;27.05;21.00;;;;;;;17.54;74.92;99535.66;3574243;40;20025;-69
2021/07/17 05:06:21;;;;;;;29.95;20.65;;;;;;;17.53;75.03;99516.16;3583228;40;20108;-70
2021/07/17 05:08:49;;;;;;;30.50;21.48;;;;;;;17.61;74.96;99517.72;3582743;40;20071;-70
2021/07/17 05:11:16;;;;;;;33.60;21.27;;;;;;;17.69;74.82;99513.94;3584128;40;20060;-71
2021/07/17 05:13:44;;;;;;;31.20;22.25;;;;;;;17.59;74.80;99527.81;3584198;40;20068;-71
2021/07/17 05:16:12;;;;;;;27.50;22.13;;;;;;;17.62;74.70;99526.56;3573809;40;20025;-70
2021/07/17 05:18:42;;;;;;;28.30;21.05;;;;;;;17.63;75.00;99518.31;3582460;40;20041;-71
2021/07/17 05:21:10;;;;;;;33.55;23.13;;;;;;;17.65;74.62;99518.91;3583259;40;20388;-71
2021/07/17 05:23:39;;;;;;;27.52;19.83;;;;;;;17.50;75.00;99516.56;3583672;40;20402;-70
2021/07/17 05:26:06;;;;;;;30.20;21.17;;;;;;;17.57;75.10;99522.69;3582421;40;20037;-71
2021/07/17 05:28:34;;;;;;;29.52;21.23;;;;;;;17.61;74.79;99517.72;3580357;40;20036;-70
2021/07/17 05:31:02;;;;;;;28.45;20.23;;;;;;;17.55;75.50;99526.59;3573288;40;20028;-70
2021/07/17 05:33:30;;;;;;;29.70;20.88;;;;;;;17.60;75.17;99524.13;3574210;40;20048;-70
2021/07/17 05:35:57;;;;;;;27.52;21.60;;;;;;;17.69;74.94;99525.44;3573930;40;20094;-70
2021/07/17 05:38:25;;;;;;;26.77;19.63;;;;;;;17.65;75.26;99526.13;3573144;40;20037;-75
2021/07/17 05:40:54;;;;;;;65.03;48.83;;;;;;;17.74;75.10;99522.13;3573434;40;20442;-70
2021/07/17 05:43:22;;;;;;;31.20;21.80;;;;;;;17.71;74.95;99523.34;3582086;40;20089;-70
2021/07/17 05:45:52;;;;;;;35.13;20.52;;;;;;;17.76;75.02;99530.78;3571811;40;20077;-70
2021/07/17 05:48:20;;;;;;;29.17;21.17;;;;;;;17.76;74.68;99528.91;3569755;40;20031;-70
2021/07/17 05:50:48;;;;;;;31.67;20.70;;;;;;;17.75;74.73;99531.78;3579469;40;20060;-70
2021/07/17 05:53:16;;;;;;;33.42;21.70;;;;;;;17.75;74.93;99535.28;3579464;40;20364;-70
2021/07/17 05:55:44;;;;;;;26.20;21.83;;;;;;;17.81;74.57;99536.28;3579093;40;20049;-70
2021/07/17 05:58:14;;;;;;;26.50;20.70;;;;;;;17.88;74.62;99544.22;3569494;40;20056;-69
2021/07/17 06:00:42;;;;;;;30.75;21.83;;;;;;;17.90;74.49;99540.28;3578788;40;20049;-70
2021/07/17 06:03:10;;;;;;;38.15;28.20;;;;;;;17.83;74.78;99544.88;3580100;40;20114;-71
2021/07/17 06:05:39;;;;;;;26.20;20.33;;;;;;;17.95;74.40;99536.94;3580248;40;20408;-71
2021/07/17 06:08:09;;;;;;;27.58;19.20;;;;;;;18.04;74.34;99533.75;3579778;40;20041;-71
2021/07/17 06:10:37;;;;;;;30.35;20.58;;;;;;;18.11;74.01;99538.19;3570917;40;20052;-71
2021/07/17 06:13:06;;;;;;;29.15;19.83;;;;;;;18.01;74.04;99539.56;3579996;40;20092;-71
2021/07/17 06:15:35;;;;;;;34.70;19.05;;;;;;;18.05;74.59;99545.28;3580384;40;20059;-71
2021/07/17 06:18:05;;;;;;;30.15;19.70;;;;;;;18.08;73.99;99544.81;3570797;40;20119;-71
2021/07/17 06:20:33;;;;;;;26.67;19.63;;;;;;;18.15;74.16;99536.72;3580104;40;20033;-71
2021/07/17 06:23:01;;;;;;;25.17;18.13;;;;;;;18.23;73.85;99537.22;3579982;40;20053;-76
2021/07/17 06:25:28;;;;;;;32.90;19.10;;;;;;;18.25;73.71;99531.66;3580450;40;20579;-71
2021/07/17 06:27:56;;;;;;;28.08;17.95;;;;;;;18.29;73.32;99530.19;3610931;23;20451;-74
2021/07/17 06:30:24;;;;;;;28.33;20.20;;;;;;;18.31;72.87;99528.06;3595068;40;20428;-74
2021/07/17 06:32:53;;;;;;;28.65;18.13;;;;;;;18.36;73.18;99533.56;3585892;40;20089;-75
2021/07/17 06:35:21;;;;;;;27.48;18.25;;;;;;;18.56;72.83;99527.94;3586147;40;20056;-75
2021/07/17 06:37:49;;;;;;;27.75;17.25;;;;;;;18.57;72.55;99526.91;3595429;40;20069;-75
2021/07/17 06:40:18;;;;;;;27.55;18.65;;;;;;;18.62;72.67;99518.22;3595468;40;20407;-75
2021/07/17 06:42:47;;;;;;;23.25;17.20;;;;;;;18.78;72.27;99518.41;3595500;40;20024;-76
2021/07/17 06:45:15;;;;;;;29.02;18.63;;;;;;;18.77;71.59;99527.47;3595181;40;20060;-75
2021/07/17 06:47:44;;;;;;;26.73;18.60;;;;;;;18.86;71.87;99527.16;3586920;40;20338;-75
2021/07/17 06:50:14;;;;;;;27.98;17.48;;;;;;;18.99;71.73;99525.09;3595880;40;20081;-75
2021/07/17 06:52:42;;;;;;;23.63;17.50;;;;;;;18.94;71.80;99532.19;3595744;40;20396;-75
2021/07/17 06:55:12;;;;;;;22.98;17.52;;;;;;;18.99;71.46;99532.34;3577725;40;20102;-75
2021/07/17 06:57:41;;;;;;;22.13;17.73;;;;;;;19.05;71.17;99539.44;3595967;40;20426;-75
2021/07/17 07:00:11;;;;;;;28.92;17.25;;;;;;;19.12;71.42;99536.66;3595102;40;20052;-74
2021/07/17 07:02:39;;;;;;;26.52;16.63;;;;;;;19.19;70.99;99537.38;3595564;40;20048;-75
2021/07/17 07:05:09;;;;;;;29.00;19.63;;;;;;;19.18;70.93;99538.41;3586295;40;20401;-75
2021/07/17 07:07:39;;;;;;;24.67;19.23;;;;;;;19.14;70.57;99547.94;3595085;40;20397;-75
2021/07/17 07:10:09;;;;;;;23.98;17.58;;;;;;;19.18;70.71;99541.91;3595030;40;20408;-76
2021/07/17 07:12:38;;;;;;;24.52;17.77;;;;;;;19.11;70.72;99545.75;3595584;40;20376;-76
2021/07/17 07:15:08;;;;;;;20.02;16.13;;;;;;;19.08;71.04;99555.06;3572892;40;20050;-75
2021/07/17 07:17:37;;;;;;;22.17;16.40;;;;;;;19.07;70.89;99552.63;3584641;40;20048;-76
2021/07/17 07:20:06;;;;;;;23.83;18.23;;;;;;;18.95;71.16;99553.41;3594562;40;20411;-75
2021/07/17 07:22:35;;;;;;;26.88;18.52;;;;;;;18.97;71.11;99553.16;3595188;40;20370;-75
2021/07/17 07:25:05;;;;;;;24.00;18.02;;;;;;;18.95;71.42;99556.09;3594933;40;20037;-77
2021/07/17 07:27:32;;;;;;;26.63;18.75;;;;;;;18.86;71.38;99564.66;3594610;40;20499;-75
2021/07/17 07:30:00;;;;;;;24.70;18.17;;;;;;;18.91;71.26;99567.47;3595034;40;20040;-75
2021/07/17 07:32:28;;;;;;;24.75;17.10;;;;;;;18.96;71.54;99572.97;3573093;40;20049;-76
2021/07/17 07:34:56;;;;;;;21.88;16.80;;;;;;;18.96;71.05;99572.97;3593434;40;20068;-76
2021/07/17 07:37:25;;;;;;;21.73;15.98;;;;;;;19.08;71.08;99571.13;3594684;40;20459;-75
2021/07/17 07:39:54;;;;;;;27.85;18.98;;;;;;;19.28;70.81;99576.19;3594794;40;20084;-76
2021/07/17 07:42:24;;;;;;;23.42;17.30;;;;;;;19.31;70.31;99573.06;3596050;40;20045;-76
2021/07/17 07:44:52;;;;;;;22.02;16.90;;;;;;;19.39;69.99;99574.56;3596690;40;20056;-76
2021/07/17 07:47:20;;;;;;;22.23;14.65;;;;;;;19.40;69.92;99581.56;3587477;40;20057;-76
2021/07/17 07:49:52;;;;;;;27.58;14.70;;;;;;;19.48;69.79;99578.56;3596682;40;20314;-76
2021/07/17 07:52:23;;;;;;;16.42;13.10;;;;;;;19.58;69.21;99583.34;3597007;40;20033;-76
2021/07/17 07:54:51;;;;;;;16.65;12.57;;;;;;;19.70;68.37;99587.69;3587550;40;20037;-76
2021/07/17 07:57:19;;;;;;;18.17;12.13;;;;;;;19.71;67.89;99578.59;3596169;40;20035;-76
2021/07/17 07:59:48;;;;;;;20.65;11.27;;;;;;;19.54;68.05;99593.72;3596327;40;20039;-76
2021/07/17 08:02:16;;;;;;;14.90;12.05;;;;;;;19.47;68.63;99596.50;3596504;40;20028;-76
2021/07/17 08:04:44;;;;;;;18.83;12.38;;;;;;;19.58;67.98;99586.84;3596269;40;20055;-76
2021/07/17 08:07:11;;;;;;;16.02;12.25;;;;;;;19.63;67.41;99594.22;3595982;40;20037;-77
2021/07/17 08:09:39;;;;;;;15.73;11.35;;;;;;;19.72;67.58;99579.44;3595864;40;20049;-76
2021/07/17 08:12:07;;;;;;;13.80;11.68;;;;;;;19.92;67.38;99584.41;3596112;40;20031;-77
2021/07/17 08:14:35;;;;;;;14.23;10.68;;;;;;;19.87;67.24;99582.44;3596143;40;20082;-77
2021/07/17 08:17:06;;;;;;;17.00;10.98;;;;;;;19.81;67.30;99580.69;3586994;40;20366;-76
2021/07/17 08:19:34;;;;;;;16.50;11.57;;;;;;;19.88;67.25;99575.19;3595749;40;20052;-77
2021/07/17 08:22:02;;;;;;;14.25;11.77;;;;;;;19.95;66.99;99579.38;3586566;40;20045;-76
2021/07/17 08:24:29;;;;;;;14.20;10.65;;;;;;;20.03;66.91;99583.59;3595771;40;20029;-77
2021/07/17 08:26:57;;;;;;;13.10;9.95;;;;;;;20.15;66.57;99579.03;3586804;40;20059;-76
2021/07/17 08:29:25;;;;;;;13.57;11.75;;;;;;;20.23;66.42;99581.34;3595864;40;20121;-77
2021/07/17 08:31:52;;;;;;;17.15;11.52;;;;;;;20.31;65.63;99580.16;3586099;40;20337;-77
2021/07/17 08:34:22;;;;;;;14.52;11.55;;;;;;;20.28;66.24;99572.56;3586411;40;20394;-76
2021/07/17 08:36:50;;;;;;;11.90;10.15;;;;;;;19.97;66.69;99588.03;3595954;40;20057;-76
2021/07/17 08:39:17;;;;;;;14.35;10.40;;;;;;;19.83;67.16;99578.59;3595426;40;20383;-76
2021/07/17 08:41:50;;;;;;;12.50;10.77;;;;;;;19.67;67.36;99582.78;3596161;40;20317;-76
2021/07/17 08:44:19;;;;;;;14.50;11.35;;;;;;;19.81;66.81;99582.56;3595828;40;20389;-76
2021/07/17 08:46:47;;;;;;;14.55;10.25;;;;;;;19.73;67.20;99581.88;3595796;40;20092;-76
2021/07/17 08:49:15;;;;;;;12.65;10.25;;;;;;;19.83;66.90;99589.31;3596010;40;20036;-78
2021/07/17 08:51:47;;;;;;;14.13;10.13;;;;;;;19.78;67.01;99591.88;3598254;40;20029;-76
2021/07/17 08:54:15;;;;;;;14.00;10.10;;;;;;;19.93;66.91;99581.50;3598577;40;20092;-76
2021/07/17 08:56:43;;;;;;;12.10;9.43;;;;;;;20.18;66.64;99575.06;3598029;40;20051;-76
2021/07/17 08:59:10;;;;;;;12.25;10.25;;;;;;;20.37;66.13;99576.53;3596890;40;20056;-76
2021/07/17 09:01:38;;;;;;;12.43;9.40;;;;;;;20.45;65.32;99580.69;3595116;40;20109;-76
2021/07/17 09:04:08;;;;;;;12.77;10.05;;;;;;;20.28;65.54;99583.31;3594698;40;20039;-76
2021/07/17 09:06:37;;;;;;;14.85;9.82;;;;;;;20.45;65.43;99583.38;3594664;40;20052;-75
2021/07/17 09:09:07;;;;;;;14.73;10.30;;;;;;;20.52;64.85;99584.09;3585924;40;20055;-75
2021/07/17 09:11:36;;;;;;;13.90;10.02;;;;;;;20.51;65.03;99582.47;3595628;40;20036;-75
2021/07/17 09:14:05;;;;;;;11.30;8.95;;;;;;;20.58;65.24;99576.97;3595364;40;20048;-75
2021/07/17 09:16:36;;;;;;;10.75;8.73;;;;;;;20.65;64.75;99581.13;3592339;40;20110;-75
2021/07/17 09:19:06;;;;;;;12.35;9.40;;;;;;;20.75;64.73;99581.34;3594709;40;20037;-74
2021/07/17 09:21:36;;;;;;;11.85;8.98;;;;;;;20.78;63.93;99574.69;3595129;40;20080;-74
2021/07/17 09:24:08;;;;;;;10.65;8.98;;;;;;;20.84;64.63;99578.25;3582861;40;20068;-75
2021/07/17 09:26:37;;;;;;;10.93;8.82;;;;;;;20.62;64.47;99570.88;3595030;40;20048;-75
2021/07/17 09:29:06;;;;;;;12.13;8.75;;;;;;;20.68;64.22;99569.09;3585878;40;20051;-75
2021/07/17 09:31:36;;;;;;;11.05;8.20;;;;;;;20.83;63.70;99564.03;3594980;40;20045;-75
2021/07/17 09:34:06;;;;;;;11.25;9.68;;;;;;;20.93;63.22;99555.31;3595018;40;20044;-75
2021/07/17 09:36:35;;;;;;;10.88;8.57;;;;;;;20.87;63.02;99553.59;3592826;40;20060;-76
2021/07/17 09:39:05;;;;;;;11.68;9.15;;;;;;;21.11;63.41;99554.28;3594698;40;20390;-76
2021/07/17 09:41:34;;;;;;;10.38;8.65;;;;;;;21.24;62.83;99557.47;3594141;40;20053;-75
2021/07/17 09:44:04;;;;;;;11.40;9.02;;;;;;;21.38;62.70;99552.59;3594807;40;20045;-75
2021/07/17 09:46:33;;;;;;;15.27;10.25;;;;;;;21.47;62.25;99563.75;3594791;40;20370;-76
2021/07/17 09:49:03;;;;;;;13.73;9.07;;;;;;;21.46;61.89;99560.25;3585717;40;20060;-76
2021/07/17 09:51:33;;;;;;;11.88;9.68;;;;;;;21.43;61.94;99560.78;3585421;40;20021;-75
2021/07/17 09:54:02;;;;;;;10.75;9.60;;;;;;;21.59;61.61;99555.59;3585065;40;20041;-76
2021/07/17 09:56:34;;;;;;;13.68;9.57;;;;;;;21.47;61.60;99547.63;3593608;40;20060;-75
2021/07/17 09:59:05;;;;;;;14.98;10.07;;;;;;;21.35;61.96;99563.88;3593483;40;20110;-75
2021/07/17 10:01:34;;;;;;;14.18;10.48;;;;;;;21.30;62.13;99557.53;3593521;40;20390;-75
2021/07/17 10:04:05;;;;;;;10.35;9.18;;;;;;;21.19;62.41;99562.78;3593084;40;20051;-75
2021/07/17 10:06:43;;;;;;;11.88;9.20;;;;;;;21.17;62.77;99562.19;3594375;40;20036;-75
2021/07/17 10:09:34;;;;;;;13.80;10.50;;;;;;;21.28;62.65;99560.50;3584400;40;20032;-74
2021/07/17 10:12:04;;;;;;;13.52;9.90;;;;;;;21.44;62.44;99561.59;3585470;40;20064;-77
2021/07/17 10:14:37;;;;;;;11.82;10.63;;;;;;;21.55;61.52;99562.53;3594652;40;20100;-75
2021/07/17 10:17:10;;;;;;;14.27;11.52;;;;;;;21.39;61.64;99556.09;3593052;40;20329;-76
2021/07/17 10:19:39;;;;;;;14.25;10.30;;;;;;;21.40;61.91;99550.50;3593554;40;20065;-75
2021/07/17 10:22:08;;;;;;;15.85;10.88;;;;;;;21.52;61.98;99545.84;3584851;40;20048;-75
2021/07/17 10:24:37;;;;;;;14.68;10.50;;;;;;;21.62;61.68;99542.47;3584513;40;20032;-75
2021/07/17 10:27:06;;;;;;;14.88;11.77;;;;;;;21.83;60.20;99546.28;3594069;40;20286;-76
2021/07/17 10:29:35;;;;;;;14.00;11.23;;;;;;;21.51;61.35;99536.16;3594083;40;20356;-74
2021/07/17 10:32:03;;;;;;;15.35;12.18;;;;;;;21.62;60.94;99530.91;3584414;40;20029;-75
2021/07/17 10:34:32;;;;;;;12.40;9.73;;;;;;;21.76;60.83;99533.00;3593397;40;20032;-75
2021/07/17 10:37:03;;;;;;;13.18;11.15;;;;;;;21.88;60.63;99532.91;3592985;40;20106;-76
2021/07/17 10:39:33;;;;;;;14.43;11.50;;;;;;;22.06;59.43;99525.59;3593255;40;20072;-76
2021/07/17 10:42:10;;;;;;;15.45;11.27;;;;;;;21.99;59.70;99531.16;3594231;40;20459;-75
2021/07/17 10:44:43;;;;;;;14.30;10.70;;;;;;;21.95;60.37;99535.41;3584485;40;20032;-76
2021/07/17 10:47:12;;;;;;;14.02;10.65;;;;;;;22.06;59.58;99528.28;3584843;40;20035;-75
2021/07/17 10:49:41;;;;;;;15.65;11.45;;;;;;;22.42;58.81;99532.25;3585204;40;20033;-77
2021/07/17 10:52:09;;;;;;;13.07;10.02;;;;;;;22.49;58.44;99528.28;3594570;40;20044;-75
2021/07/17 10:54:37;;;;;;;14.68;10.15;;;;;;;22.55;59.19;99525.66;3596278;40;20052;-75
2021/07/17 10:57:06;;;;;;;16.58;10.93;;;;;;;22.53;59.13;99525.88;3586592;40;20057;-75
2021/07/17 10:59:45;;;;;;;18.38;11.90;;;;;;;22.58;59.28;99527.84;3596195;40;20073;-77
2021/07/17 11:02:16;;;;;;;13.85;10.80;;;;;;;22.68;59.49;99517.16;3584854;40;20029;-75
2021/07/17 11:04:50;;;;;;;15.88;11.25;;;;;;;22.83;59.16;99521.88;3586611;40;20040;-76
2021/07/17 11:07:31;;;;;;;18.77;11.70;;;;;;;22.83;58.53;99520.00;3597119;40;20052;-77
2021/07/17 11:10:01;;;;;;;13.18;10.90;;;;;;;22.93;58.55;99506.63;3572968;40;20403;-76
2021/07/17 11:12:30;;;;;;;12.68;10.60;;;;;;;23.19;58.40;99514.97;3593368;40;20028;-74
2021/07/17 11:15:40;;;;;;;12.85;10.40;;;;;;;23.13;58.10;99506.00;3595042;40;20036;-76
2021/07/17 11:18:33;;;;;;;12.80;10.60;;;;;;;23.28;58.04;99507.19;3596850;40;20033;-75
2021/07/17 11:21:03;;;;;;;14.07;9.98;;;;;;;23.23;57.82;99503.38;3597334;40;20402;-76
2021/07/17 11:23:33;;;;;;;13.40;11.70;;;;;;;23.42;57.59;99502.97;3597118;40;20460;-77
2021/07/17 11:26:05;;;;;;;13.00;9.70;;;;;;;23.58;57.42;99495.78;3583727;40;20319;-76